Time;durP1;ratioP1;P1;durP2;ratioP2;P2;SDS_P1;SDS_P2;PMS_P1;PMS_P2;Temp;Humidity;BMP_temperature;BMP_pressure;BME280_temperature;BME280_humidity;BME280_pressure;Samples;Min_cycle;Max_cycle;Signal;HPM_P1;HPM_P2
2023/04/24 00:01:18;;;;;;;;;;;;;;;18.73;53.48;99884.66;4922030;29;19919;-85
2023/04/24 00:04:07;;;;;;;;;;;;;;;18.77;53.44;99883.47;4926072;29;19915;-85
2023/04/24 00:06:59;;;;;;;;;;;;;;;18.72;53.58;99872.84;4921174;29;19915;-85
2023/04/24 00:09:51;;;;;;;;;;;;;;;18.61;53.66;99874.78;4927417;29;19919;-86
2023/04/24 00:12:41;;;;;;;;;;;;;;;18.40;53.67;99877.44;4908485;29;19919;-85
2023/04/24 00:15:33;;;;;;;;;;;;;;;18.41;53.56;99870.75;4901995;29;20107;-85
2023/04/24 00:18:25;;;;;;;;;;;;;;;18.56;53.02;99864.13;4917425;29;19919;-84
2023/04/24 00:21:16;;;;;;;;;;;;;;;18.43;52.43;99856.59;4931028;29;19915;-84
2023/04/24 00:24:08;;;;;;;;;;;;;;;18.22;52.95;99849.06;4935855;29;19915;-85
2023/04/24 00:27:00;;;;;;;;;;;;;;;18.18;52.73;99848.25;4942113;29;19915;-85
2023/04/24 00:29:52;;;;;;;;;;;;;;;17.98;52.57;99842.25;4937932;29;20400;-85
2023/04/24 00:32:44;;;;;;;;;;;;;;;17.94;52.82;99834.00;4934085;29;19915;-86
2023/04/24 00:35:34;;;;;;;;;;;;;;;17.96;52.92;99833.63;4920459;29;19915;-85
2023/04/24 00:38:27;;;;;;;;;;;;;;;18.03;52.83;99830.88;4919709;29;19918;-85
2023/04/24 00:41:21;;;;;;;;;;;;;;;17.92;53.26;99825.34;4912458;29;19915;-84
2023/04/24 00:44:13;;;;;;;;;;;;;;;17.84;53.68;99825.69;4914999;29;19919;-85
2023/04/24 00:47:05;;;;;;;;;;;;;;;17.77;54.06;99820.97;4920087;29;19915;-86
2023/04/24 00:49:57;;;;;;;;;;;;;;;17.86;54.20;99823.34;4920855;29;19915;-85
2023/04/24 00:52:49;;;;;;;;;;;;;;;17.95;54.40;99827.31;4923496;29;19915;-85
2023/04/24 00:55:37;;;;;;;;;;;;;;;17.92;54.88;99821.81;4923180;29;19915;-84
2023/04/24 00:58:27;;;;;;;;;;;;;;;18.02;55.07;99825.78;4922558;29;19919;-84
2023/04/24 01:01:16;;;;;;;;;;;;;;;18.00;55.46;99812.41;4922826;29;19915;-84
2023/04/24 01:04:08;;;;;;;;;;;;;;;18.00;55.42;99808.88;4915969;29;19915;-85
2023/04/24 01:07:00;;;;;;;;;;;;;;;17.78;56.08;99814.25;4927277;29;20109;-85
2023/04/24 01:09:52;;;;;;;;;;;;;;;17.66;56.88;99802.81;4929946;29;19915;-86
2023/04/24 01:12:44;;;;;;;;;;;;;;;17.73;56.76;99805.59;4932842;29;19914;-86
2023/04/24 01:15:34;;;;;;;;;;;;;;;17.85;56.84;99806.06;4912532;29;19915;-86
2023/04/24 01:18:23;;;;;;;;;;;;;;;17.82;57.19;99795.84;4904842;29;19923;-86
2023/04/24 01:21:16;;;;;;;;;;;;;;;17.81;57.56;99794.25;4940948;29;19915;-87
2023/04/24 01:24:09;;;;;;;;;;;;;;;17.70;57.92;99790.66;4920883;29;19915;-86
2023/04/24 01:27:01;;;;;;;;;;;;;;;17.68;58.10;99783.97;4922579;29;19915;-85
2023/04/24 01:29:50;;;;;;;;;;;;;;;17.61;58.56;99792.97;4924211;29;19918;-86
2023/04/24 01:32:44;;;;;;;;;;;;;;;17.57;59.24;99774.88;4923473;29;19919;-86
2023/04/24 01:35:37;;;;;;;;;;;;;;;17.44;64.99;99768.88;4931231;29;19915;-86
2023/04/24 01:38:26;;;;;;;;;;;;;;;17.26;65.76;99768.00;4939231;29;20386;-86
2023/04/24 01:41:18;;;;;;;;;;;;;;;17.12;64.55;99768.69;4924314;29;19915;-86
2023/04/24 01:44:10;;;;;;;;;;;;;;;16.88;65.06;99753.59;4931184;29;19914;-86
2023/04/24 01:47:02;;;;;;;;;;;;;;;16.90;65.12;99762.28;4943435;29;19915;-86
2023/04/24 01:49:52;;;;;;;;;;;;;;;16.95;64.93;99769.38;4946606;29;20387;-86
2023/04/24 01:52:44;;;;;;;;;;;;;;;17.05;65.80;99769.44;4943538;29;19915;-84
2023/04/24 01:55:34;;;;;;;;;;;;;;;17.13;65.56;99769.47;4922784;29;19915;-85
2023/04/24 01:58:26;;;;;;;;;;;;;;;17.14;69.42;99777.34;4909322;29;19919;-85
2023/04/24 02:01:25;;;;;;;;;;;;;;;16.64;78.94;99782.44;4922191;29;19915;-83
2023/04/24 02:04:15;;;;;;;;;;;;;;;16.41;85.70;99787.28;4923886;29;19919;-84
2023/04/24 02:07:07;;;;;;;;;;;;;;;15.79;89.90;99783.47;4922924;29;19920;-84
2023/04/24 02:09:59;;;;;;;;;;;;;;;15.42;94.80;99780.56;4939330;29;19915;-84
2023/04/24 02:12:51;;;;;;;;;;;;;;;15.35;97.73;99785.94;4923367;29;19918;-84
2023/04/24 02:15:46;;;;;;;;;;;;;;;15.60;100.00;99789.06;4931378;29;19915;-84
2023/04/24 02:18:36;;;;;;;;;;;;;;;15.68;100.00;99782.53;4918070;29;20302;-83
2023/04/24 02:21:27;;;;;;;;;;;;;;;15.56;100.00;99771.78;4941665;29;19915;-83
2023/04/24 02:24:19;;;;;;;;;;;;;;;15.37;100.00;99765.25;4938085;29;19915;-83
2023/04/24 02:27:11;;;;;;;;;;;;;;;15.54;100.00;99763.97;4928227;29;19915;-83
2023/04/24 02:30:03;;;;;;;;;;;;;;;15.57;100.00;99770.63;4902822;29;20383;-84
2023/04/24 02:32:55;;;;;;;;;;;;;;;15.48;100.00;99764.59;4902583;29;19915;-83
2023/04/24 02:35:47;;;;;;;;;;;;;;;15.67;100.00;99761.75;4923977;29;20290;-84
2023/04/24 02:38:39;;;;;;;;;;;;;;;15.78;100.00;99768.16;4929587;29;19919;-83
2023/04/24 02:41:31;;;;;;;;;;;;;;;15.79;100.00;99764.25;4913942;29;19915;-84
2023/04/24 02:44:23;;;;;;;;;;;;;;;15.83;100.00;99768.63;4923341;29;20540;-83
2023/04/24 02:47:15;;;;;;;;;;;;;;;15.56;100.00;99764.34;4924701;29;19915;-83
2023/04/24 02:50:07;;;;;;;;;;;;;;;15.50;99.90;99754.84;4903801;29;19915;-83
2023/04/24 02:52:59;;;;;;;;;;;;;;;15.89;100.00;99757.31;4905868;29;19915;-84
2023/04/24 02:55:51;;;;;;;;;;;;;;;15.91;99.33;99755.78;4911019;29;20387;-83
2023/04/24 02:58:43;;;;;;;;;;;;;;;15.91;99.96;99761.25;4933440;29;19919;-83
2023/04/24 03:01:35;;;;;;;;;;;;;;;15.85;99.17;99751.78;4906722;29;20330;-85
2023/04/24 03:04:27;;;;;;;;;;;;;;;15.85;98.31;99762.75;4907647;29;19915;-85
2023/04/24 03:07:19;;;;;;;;;;;;;;;15.76;95.49;99749.34;4939340;29;19915;-85
2023/04/24 03:10:11;;;;;;;;;;;;;;;15.95;93.55;99750.34;4920295;29;19915;-85
2023/04/24 03:13:03;;;;;;;;;;;;;;;16.05;89.72;99747.69;4939352;29;19915;-86
2023/04/24 03:15:55;;;;;;;;;;;;;;;16.23;87.12;99756.13;4930210;29;19918;-85
2023/04/24 03:18:46;;;;;;;;;;;;;;;16.48;85.41;99750.88;4932272;29;19919;-86
2023/04/24 03:21:40;;;;;;;;;;;;;;;16.54;82.93;99754.88;4918851;29;19915;-86
2023/04/24 03:24:33;;;;;;;;;;;;;;;16.50;80.99;99754.84;4908765;29;19916;-86
2023/04/24 03:27:22;;;;;;;;;;;;;;;16.55;81.22;99743.53;4918511;29;19915;-85
2023/04/24 03:30:24;;;;;;;;;;;;;;;16.44;80.07;99742.63;4930100;29;19915;-86
2023/04/24 03:33:19;;;;;;;;;;;;;;;16.43;80.59;99734.75;4921561;29;19919;-86
2023/04/24 03:36:18;;;;;;;;;;;;;;;16.25;79.69;99734.63;4941232;29;19934;-86
2023/04/24 03:39:10;;;;;;;;;;;;;;;16.23;79.26;99734.19;4942164;29;19919;-85
2023/04/24 03:42:05;;;;;;;;;;;;;;;16.34;79.93;99745.28;4937160;28;20390;-85
2023/04/24 03:45:08;;;;;;;;;;;;;;;16.42;80.41;99744.16;4921588;29;19922;-86
2023/04/24 03:48:01;;;;;;;;;;;;;;;16.43;78.29;99743.00;4926389;29;19915;-86
2023/04/24 03:50:53;;;;;;;;;;;;;;;16.52;78.59;99751.69;4918077;29;19915;-86
2023/04/24 03:53:46;;;;;;;;;;;;;;;16.61;78.33;99754.94;4904248;29;19915;-86
2023/04/24 03:56:38;;;;;;;;;;;;;;;16.59;78.23;99754.56;4902095;29;19915;-86
2023/04/24 03:59:30;;;;;;;;;;;;;;;16.65;77.90;99762.06;4919596;29;19922;-87
2023/04/24 04:02:31;;;;;;;;;;;;;;;16.63;76.82;99758.09;4923070;29;19915;-86
2023/04/24 04:05:23;;;;;;;;;;;;;;;16.72;76.99;99763.28;4921336;29;19919;-86
2023/04/24 04:08:15;;;;;;;;;;;;;;;16.74;76.93;99763.69;4925461;29;19915;-86
2023/04/24 04:11:07;;;;;;;;;;;;;;;16.55;77.24;99767.44;4924888;29;19915;-86
2023/04/24 04:13:59;;;;;;;;;;;;;;;16.45;78.72;99768.13;4924581;29;20001;-85
2023/04/24 04:16:51;;;;;;;;;;;;;;;16.33;78.46;99771.13;4936707;29;19919;-86
2023/04/24 04:19:43;;;;;;;;;;;;;;;16.19;78.53;99772.56;4925742;29;19923;-85
2023/04/24 04:22:33;;;;;;;;;;;;;;;16.14;79.28;99769.38;4915318;29;20390;-85
2023/04/24 04:25:24;;;;;;;;;;;;;;;16.12;79.08;99763.47;4921714;29;19919;-86
2023/04/24 04:43:23;;;;;;;;;;;;;;;16.06;78.15;99806.88;4924583;29;19914;-82
2023/04/24 04:46:17;;;;;;;;;;;;;;;16.05;76.83;99808.03;4936073;28;19915;-84
2023/04/24 04:49:19;;;;;;;;;;;;;;;16.11;75.95;99801.06;4925864;29;19919;-84
2023/04/24 04:52:11;;;;;;;;;;;;;;;16.16;76.23;99767.81;4943487;28;19914;-84
2023/04/24 04:55:04;;;;;;;;;;;;;;;16.06;76.39;99778.66;4919821;29;19923;-83
2023/04/24 04:58:13;;;;;;;;;;;;;;;16.21;76.21;99796.84;4926452;29;19915;-83
2023/04/24 05:01:05;;;;;;;;;;;;;;;16.14;77.41;99807.75;4930472;28;19923;-82
2023/04/24 05:04:00;;;;;;;;;;;;;;;16.11;76.89;99808.50;4915693;29;20095;-83
2023/04/24 05:06:51;;;;;;;;;;;;;;;16.18;77.05;99805.84;4920598;29;19919;-83
2023/04/24 05:09:44;;;;;;;;;;;;;;;16.18;77.80;99803.91;4934666;28;19915;-83
2023/04/24 05:12:37;;;;;;;;;;;;;;;16.14;76.89;99786.63;4918352;29;19915;-85
2023/04/24 05:15:29;;;;;;;;;;;;;;;16.25;76.95;99792.22;4926419;29;19926;-82
2023/04/24 05:18:22;;;;;;;;;;;;;;;16.27;76.84;99784.38;4937846;29;20297;-82
2023/04/24 05:21:14;;;;;;;;;;;;;;;16.40;76.37;99793.16;4937839;29;19914;-81
2023/04/24 05:24:06;;;;;;;;;;;;;;;16.37;75.96;99793.91;4921107;29;19915;-83
2023/04/24 05:27:14;;;;;;;;;;;;;;;16.40;76.24;99784.94;4919364;29;19915;-83
2023/04/24 05:30:06;;;;;;;;;;;;;;;16.34;76.41;99778.19;4935812;28;19915;-82
2023/04/24 05:32:58;;;;;;;;;;;;;;;16.41;76.16;99770.81;4915326;29;19915;-81
2023/04/24 05:35:50;;;;;;;;;;;;;;;16.26;76.38;99767.13;4919008;29;21282;-82
2023/04/24 05:38:44;;;;;;;;;;;;;;;16.39;75.36;99773.16;4930584;29;19915;-80
2023/04/24 05:41:37;;;;;;;;;;;;;;;16.46;75.76;99786.94;4911315;29;19919;-82
2023/04/24 05:44:29;;;;;;;;;;;;;;;16.43;75.61;99782.22;4920801;29;19914;-81
2023/04/24 05:47:22;;;;;;;;;;;;;;;16.33;76.38;99790.34;4920716;29;19914;-84
2023/04/24 05:50:14;;;;;;;;;;;;;;;16.40;75.91;99782.97;4941408;28;19915;-84
2023/04/24 05:53:06;;;;;;;;;;;;;;;16.42;75.75;99786.13;4921202;29;19915;-85
2023/04/24 05:56:02;;;;;;;;;;;;;;;16.38;76.32;99792.72;4929372;29;19915;-85
2023/04/24 05:58:52;;;;;;;;;;;;;;;16.37;76.36;99791.94;4933851;28;19919;-86
2023/04/24 06:01:44;;;;;;;;;;;;;;;16.33;76.07;99782.09;4917522;29;19916;-84
2023/04/24 06:04:35;;;;;;;;;;;;;;;16.29;76.69;99778.53;4919563;29;20367;-84
2023/04/24 06:07:25;;;;;;;;;;;;;;;16.34;76.20;99778.19;4950041;28;19914;-87
2023/04/24 06:10:12;;;;;;;;;;;;;;;16.29;75.88;99775.78;4926302;29;20298;-90
2023/04/24 06:13:07;;;;;;;;;;;;;;;16.19;76.04;99788.22;4933692;29;19915;-89
2023/04/24 06:15:59;;;;;;;;;;;;;;;16.21;76.66;99788.63;4928137;29;19915;-85
2023/04/24 06:18:55;;;;;;;;;;;;;;;16.21;76.68;99794.91;4914402;29;19919;-85
2023/04/24 06:21:47;;;;;;;;;;;;;;;16.19;77.14;99794.50;4921044;29;19914;-85
2023/04/24 06:24:39;;;;;;;;;;;;;;;16.15;77.05;99796.41;4918326;29;20386;-84
2023/04/24 06:27:35;;;;;;;;;;;;;;;16.13;77.00;99785.03;4933849;29;19919;-86
2023/04/24 06:30:26;;;;;;;;;;;;;;;16.01;77.12;99788.00;4910095;29;20295;-84
2023/04/24 06:33:18;;;;;;;;;;;;;;;16.13;76.88;99782.28;4934611;28;19915;-82
2023/04/24 06:36:10;;;;;;;;;;;;;;;16.16;76.42;99789.75;4922979;29;20560;-83
2023/04/24 06:39:02;;;;;;;;;;;;;;;16.20;76.37;99796.06;4929347;28;19919;-85
2023/04/24 06:41:54;;;;;;;;;;;;;;;16.22;76.63;99796.50;4912474;29;19915;-83
2023/04/24 06:44:46;;;;;;;;;;;;;;;16.24;76.58;99809.84;4942168;28;19915;-83
2023/04/24 06:47:36;;;;;;;;;;;;;;;16.25;75.66;99825.91;4912255;29;19915;-83
2023/04/24 06:50:28;;;;;;;;;;;;;;;16.20;75.11;99828.22;4914998;29;19949;-80
2023/04/24 06:53:20;;;;;;;;;;;;;;;16.22;74.14;99832.16;4919467;29;19911;-83
2023/04/24 06:56:09;;;;;;;;;;;;;;;16.18;72.78;99820.34;4920454;29;19923;-83
2023/04/24 06:58:59;;;;;;;;;;;;;;;16.19;71.91;99826.63;4915684;29;20303;-82
2023/04/24 07:01:51;;;;;;;;;;;;;;;16.17;71.56;99816.03;4913834;29;19973;-83
2023/04/24 07:04:42;;;;;;;;;;;;;;;16.21;70.59;99811.38;4910157;29;20303;-85
2023/04/24 07:07:34;;;;;;;;;;;;;;;16.23;70.07;99820.03;4938489;28;19915;-83
2023/04/24 07:10:26;;;;;;;;;;;;;;;16.17;69.49;99812.50;4909616;29;19915;-86
2023/04/24 07:13:18;;;;;;;;;;;;;;;16.14;69.54;99797.59;4912739;29;20378;-83
2023/04/24 07:16:11;;;;;;;;;;;;;;;16.20;68.13;99790.59;4937373;28;19927;-82
2023/04/24 07:19:00;;;;;;;;;;;;;;;16.16;65.20;99789.75;4931767;28;20335;-84
2023/04/24 07:21:52;;;;;;;;;;;;;;;17.91;66.40;99803.72;4914471;29;19915;-75
2023/04/24 07:24:44;;;;;;;;;;;;;;;18.24;64.04;99800.69;4915494;29;19915;-76
2023/04/24 07:27:36;;;;;;;;;;;;;;;18.20;63.31;99802.66;4909255;29;19915;-76
2023/04/24 07:30:28;;;;;;;;;;;;;;;18.21;62.97;99800.69;4915876;29;19914;-76
2023/04/24 07:33:20;;;;;;;;;;;;;;;18.27;62.15;99796.38;4912507;29;19919;-77
2023/04/24 07:36:15;;;;;;;;;;;;;;;18.26;61.64;99798.34;4912478;29;20004;-76
2023/04/24 07:39:07;;;;;;;;;;;;;;;18.25;61.07;99805.03;4907572;29;19927;-76
2023/04/24 07:41:58;;;;;;;;;;;;;;;18.36;59.69;99805.84;4905693;29;19915;-76
2023/04/24 07:44:50;;;;;;;;;;;;;;;18.41;59.50;99799.16;4914041;29;19920;-76
2023/04/24 07:47:43;;;;;;;;;;;;;;;18.44;58.87;99798.38;4907199;29;19915;-76
2023/04/24 07:50:35;;;;;;;;;;;;;;;18.43;58.61;99791.31;4905907;29;19919;-77
2023/04/24 07:53:25;;;;;;;;;;;;;;;18.45;58.10;99790.91;4909055;29;19906;-77
2023/04/24 07:56:17;;;;;;;;;;;;;;;18.47;57.56;99786.59;4906759;29;19914;-75
2023/04/24 07:59:09;;;;;;;;;;;;;;;18.47;57.43;99781.09;4912048;29;19923;-75
2023/04/24 08:02:01;;;;;;;;;;;;;;;18.51;57.57;99787.38;4922780;29;19915;-76
2023/04/24 08:04:53;;;;;;;;;;;;;;;18.53;57.18;99796.06;4902231;29;19923;-75
2023/04/24 08:07:45;;;;;;;;;;;;;;;18.55;57.98;99792.91;4913600;29;19915;-75
2023/04/24 08:10:37;;;;;;;;;;;;;;;18.58;57.06;99795.69;4912034;29;19914;-75
2023/04/24 08:13:30;;;;;;;;;;;;;;;18.59;56.52;99804.75;4917583;29;19923;-75
2023/04/24 08:16:19;;;;;;;;;;;;;;;18.58;56.57;99790.19;4915751;29;19914;-74
2023/04/24 08:19:11;;;;;;;;;;;;;;;18.57;56.19;99805.13;4921096;29;19922;-75
2023/04/24 08:22:03;;;;;;;;;;;;;;;18.56;56.08;99809.06;4917017;29;19923;-74
2023/04/24 08:24:55;;;;;;;;;;;;;;;18.59;55.45;99808.28;4930937;28;19919;-74
2023/04/24 08:27:48;;;;;;;;;;;;;;;18.56;55.66;99811.81;4919433;29;19915;-74
2023/04/24 08:30:37;;;;;;;;;;;;;;;18.09;50.45;99814.78;4917539;29;19922;-78
2023/04/24 08:33:32;;;;;;;;;;;;;;;17.59;51.05;99809.06;4920385;29;19923;-79
2023/04/24 08:36:24;;;;;;;;;;;;;;;17.24;51.46;99812.34;4918430;29;19915;-79
2023/04/24 08:39:12;;;;;;;;;;;;;;;17.05;52.53;99807.09;4921674;29;19923;-79
2023/04/24 08:42:05;;;;;;;;;;;;;;;16.91;54.17;99816.03;4917773;29;20302;-84
2023/04/24 08:44:57;;;;;;;;;;;;;;;16.96;55.07;99818.44;4917339;29;19923;-82
2023/04/24 08:47:50;;;;;;;;;;;;;;;16.99;55.92;99817.66;4923722;29;19915;-83
2023/04/24 08:50:42;;;;;;;;;;;;;;;17.29;57.30;99835.94;4924006;29;19915;-79
2023/04/24 08:53:34;;;;;;;;;;;;;;;17.74;55.64;99829.97;4919078;29;19919;-79
2023/04/24 08:56:24;;;;;;;;;;;;;;;17.80;54.99;99828.44;4922102;29;19914;-79
2023/04/24 08:59:17;;;;;;;;;;;;;;;17.88;55.08;99837.50;4916919;29;20298;-79
2023/04/24 09:02:07;;;;;;;;;;;;;;;17.91;55.34;99837.53;4931673;28;19923;-80
2023/04/24 09:04:59;;;;;;;;;;;;;;;17.84;55.13;99843.00;4920747;29;19915;-79
2023/04/24 09:07:52;;;;;;;;;;;;;;;17.80;55.01;99842.19;4915535;29;20527;-79
2023/04/24 09:10:44;;;;;;;;;;;;;;;17.85;55.52;99843.78;4919380;29;20393;-79
2023/04/24 09:13:34;;;;;;;;;;;;;;;17.86;55.45;99831.59;4925311;29;19919;-79
2023/04/24 09:16:23;;;;;;;;;;;;;;;17.92;55.77;99839.13;4916969;29;19923;-80
2023/04/24 09:19:13;;;;;;;;;;;;;;;17.87;55.37;99835.94;4919164;29;19915;-83
2023/04/24 09:22:06;;;;;;;;;;;;;;;17.88;56.18;99840.25;4915877;29;19919;-79
2023/04/24 09:25:05;;;;;;;;;;;;;;;17.92;55.77;99846.56;4922445;29;19915;-77
2023/04/24 09:27:55;;;;;;;;;;;;;;;17.91;54.88;99834.78;4929364;29;19923;-78
2023/04/24 09:30:47;;;;;;;;;;;;;;;17.91;54.09;99842.25;4920270;29;19915;-79
2023/04/24 09:33:40;;;;;;;;;;;;;;;17.98;54.25;99838.75;4917995;29;19915;-78
2023/04/24 09:36:37;;;;;;;;;;;;;;;18.03;54.54;99832.88;4916755;29;20374;-78
2023/04/24 09:39:29;;;;;;;;;;;;;;;17.99;53.64;99827.34;4914296;29;20379;-78
2023/04/24 09:42:21;;;;;;;;;;;;;;;17.99;52.73;99823.78;4914671;29;19918;-79
2023/04/24 09:45:13;;;;;;;;;;;;;;;17.93;52.39;99823.38;4926698;28;19915;-77
2023/04/24 09:48:03;;;;;;;;;;;;;;;18.03;52.78;99827.38;4918796;29;19919;-78
2023/04/24 09:50:55;;;;;;;;;;;;;;;18.06;52.93;99829.34;4912807;29;19915;-80
2023/04/24 09:53:47;;;;;;;;;;;;;;;18.05;52.91;99833.25;4913381;29;19923;-79
2023/04/24 09:56:44;;;;;;;;;;;;;;;18.05;52.40;99836.78;4916795;29;19919;-78
2023/04/24 09:59:36;;;;;;;;;;;;;;;18.10;51.92;99835.63;4913900;29;19919;-78
2023/04/24 10:02:28;;;;;;;;;;;;;;;18.08;52.55;99838.00;4915032;29;19919;-81
2023/04/24 10:05:19;;;;;;;;;;;;;;;18.10;52.45;99838.38;4914308;29;20306;-79
2023/04/24 10:08:09;;;;;;;;;;;;;;;18.14;52.30;99833.69;4913318;29;19919;-79
2023/04/24 10:11:01;;;;;;;;;;;;;;;18.18;52.81;99835.28;4914106;29;19923;-78
2023/04/24 10:13:53;;;;;;;;;;;;;;;18.21;52.07;99840.00;4913108;29;19922;-79
2023/04/24 10:16:46;;;;;;;;;;;;;;;18.25;52.27;99829.00;4917136;29;19919;-79
2023/04/24 10:19:36;;;;;;;;;;;;;;;18.29;52.74;99829.81;4912260;29;19919;-79
2023/04/24 10:22:29;;;;;;;;;;;;;;;18.33;53.11;99841.63;4930683;29;20383;-78
2023/04/24 10:25:21;;;;;;;;;;;;;;;18.32;53.44;99842.81;4917854;29;19919;-78
2023/04/24 10:28:14;;;;;;;;;;;;;;;18.37;53.15;99850.69;4921031;29;19915;-80
2023/04/24 10:31:03;;;;;;;;;;;;;;;18.41;53.46;99843.22;4926505;29;19918;-87
2023/04/24 10:33:55;;;;;;;;;;;;;;;18.47;53.77;99846.38;4948909;28;19915;-85
2023/04/24 10:36:48;;;;;;;;;;;;;;;18.52;54.27;99841.28;4932916;29;19915;-85
2023/04/24 10:39:37;;;;;;;;;;;;;;;18.58;54.23;99859.03;4933729;29;19923;-85
2023/04/24 10:42:29;;;;;;;;;;;;;;;18.62;54.12;99851.56;4931729;29;19915;-74
2023/04/24 10:45:21;;;;;;;;;;;;;;;18.65;54.45;99853.53;4916943;29;19915;-76
2023/04/24 10:48:12;;;;;;;;;;;;;;;18.64;54.51;99851.19;4927337;29;19915;-77
2023/04/24 10:51:03;;;;;;;;;;;;;;;18.66;54.62;99855.09;4916627;29;19915;-76
2023/04/24 10:53:52;;;;;;;;;;;;;;;18.63;54.60;99853.16;4963435;23;19923;-75
2023/04/24 10:56:44;;;;;;;;;;;;;;;18.69;54.33;99850.81;4922133;29;19927;-75
2023/04/24 10:59:37;;;;;;;;;;;;;;;18.70;53.91;99855.09;4941545;29;19914;-75
2023/04/24 11:02:39;;;;;;;;;;;;;;;18.67;53.83;99856.69;4949613;29;19914;-75
2023/04/24 11:05:47;;;;;;;;;;;;;;;18.69;53.66;99859.06;4917654;29;19915;-75
2023/04/24 11:08:50;;;;;;;;;;;;;;;18.74;53.31;99859.44;4918038;29;19919;-74
2023/04/24 11:11:39;;;;;;;;;;;;;;;18.75;52.79;99857.47;4910628;29;19923;-75
2023/04/24 11:14:29;;;;;;;;;;;;;;;18.77;52.79;99846.88;4916447;29;19915;-75
2023/04/24 11:17:29;;;;;;;;;;;;;;;18.83;52.45;99844.53;4915607;29;19915;-75
2023/04/24 11:20:26;;;;;;;;;;;;;;;18.88;52.06;99844.91;4921280;29;19919;-74
2023/04/24 11:23:18;;;;;;;;;;;;;;;18.93;51.77;99844.53;4916175;29;19915;-75
2023/04/24 11:26:19;;;;;;;;;;;;;;;18.95;51.68;99841.38;4907218;29;19923;-75
2023/04/24 11:29:08;;;;;;;;;;;;;;;18.96;51.94;99845.69;4914014;29;19915;-75
2023/04/24 11:32:15;;;;;;;;;;;;;;;18.92;52.31;99850.44;4911416;29;20387;-75
2023/04/24 11:35:16;;;;;;;;;;;;;;;18.96;51.89;99849.25;4925475;28;19927;-74
2023/04/24 11:38:08;;;;;;;;;;;;;;;18.99;51.88;99853.19;4911322;29;19923;-74
2023/04/24 11:41:03;;;;;;;;;;;;;;;19.07;51.94;99847.28;4910616;29;19923;-75
2023/04/24 11:43:56;;;;;;;;;;;;;;;19.04;52.75;99852.81;4908602;29;20310;-74
2023/04/24 11:46:48;;;;;;;;;;;;;;;19.03;53.76;99846.50;4914997;29;19914;-75
2023/04/24 11:49:43;;;;;;;;;;;;;;;19.08;53.76;99839.81;4918390;29;19918;-75
2023/04/24 11:52:33;;;;;;;;;;;;;;;19.11;53.73;99831.53;4924508;29;19915;-75
2023/04/24 11:55:25;;;;;;;;;;;;;;;19.16;53.54;99824.84;4897045;29;19919;-75
2023/04/24 11:58:20;;;;;;;;;;;;;;;19.13;54.60;99836.66;4916459;29;19914;-74
2023/04/24 12:01:12;;;;;;;;;;;;;;;19.11;54.76;99842.56;4915780;29;19919;-74
2023/04/24 12:04:04;;;;;;;;;;;;;;;19.10;54.83;99831.91;4915926;29;19915;-76
2023/04/24 12:07:08;;;;;;;;;;;;;;;19.14;54.96;99838.25;4922326;29;19915;-75
2023/04/24 12:09:59;;;;;;;;;;;;;;;19.14;54.85;99833.53;4933387;29;19938;-75
2023/04/24 12:12:51;;;;;;;;;;;;;;;19.26;54.32;99837.81;4918945;29;19926;-75
2023/04/24 12:15:43;;;;;;;;;;;;;;;19.25;54.30;99829.97;4915791;29;19915;-76
2023/04/24 12:18:35;;;;;;;;;;;;;;;19.26;54.23;99832.31;4920075;29;20383;-76
2023/04/24 12:21:27;;;;;;;;;;;;;;;19.28;53.67;99824.44;4908398;29;19919;-76
2023/04/24 12:24:18;;;;;;;;;;;;;;;19.26;53.36;99824.03;4915712;29;19922;-76
2023/04/24 12:27:20;;;;;;;;;;;;;;;19.16;53.14;99806.34;4918380;29;19922;-76
2023/04/24 12:30:12;;;;;;;;;;;;;;;19.28;51.67;99813.41;4915316;29;19915;-76
2023/04/24 12:33:04;;;;;;;;;;;;;;;19.41;51.65;99816.53;4919666;29;19915;-75
2023/04/24 12:35:55;;;;;;;;;;;;;;;19.64;47.83;99819.69;4917991;29;20375;-76
2023/04/24 12:38:46;;;;;;;;;;;;;;;20.21;43.91;99805.69;4919527;29;19914;-78
2023/04/24 12:41:35;;;;;;;;;;;;;;;20.54;43.68;99809.84;4925153;29;19918;-78
2023/04/24 12:44:36;;;;;;;;;;;;;;;20.70;43.41;99801.84;4897705;29;19915;-77
2023/04/24 12:47:26;;;;;;;;;;;;;;;20.72;43.70;99796.72;4897431;29;19915;-77
2023/04/24 12:50:18;;;;;;;;;;;;;;;20.75;43.96;99798.66;4923887;29;20306;-77
2023/04/24 12:53:10;;;;;;;;;;;;;;;20.86;44.46;99794.63;4920131;29;19915;-77
2023/04/24 12:56:02;;;;;;;;;;;;;;;20.97;43.15;99794.53;4923729;29;19914;-78
2023/04/24 12:58:51;;;;;;;;;;;;;;;20.94;42.81;99789.81;4920413;29;19915;-78
2023/04/24 13:01:43;;;;;;;;;;;;;;;20.87;41.87;99795.41;4918163;29;19919;-77
2023/04/24 13:04:35;;;;;;;;;;;;;;;20.82;42.89;99784.78;4900708;29;19915;-77
2023/04/24 13:07:27;;;;;;;;;;;;;;;20.65;43.12;99782.94;4915076;29;19915;-76
2023/04/24 13:10:19;;;;;;;;;;;;;;;20.68;43.66;99782.13;4918672;29;19922;-78
2023/04/24 13:13:13;;;;;;;;;;;;;;;20.65;43.28;99780.19;4919529;29;20351;-77
2023/04/24 13:16:05;;;;;;;;;;;;;;;20.72;43.07;99782.91;4920054;29;20298;-78
2023/04/24 13:18:57;;;;;;;;;;;;;;;20.90;43.19;99789.84;4919390;29;19915;-78
2023/04/24 13:21:49;;;;;;;;;;;;;;;21.03;40.62;99773.53;4918262;29;19919;-77
2023/04/24 13:24:42;;;;;;;;;;;;;;;21.21;43.38;99765.91;4913654;29;19915;-78
2023/04/24 13:27:34;;;;;;;;;;;;;;;21.24;41.43;99776.13;4918725;29;20318;-78
2023/04/24 13:30:26;;;;;;;;;;;;;;;21.31;42.95;99769.75;4921069;29;19915;-77
2023/04/24 13:33:18;;;;;;;;;;;;;;;21.27;44.61;99771.78;4917844;29;19922;-78
2023/04/24 13:36:07;;;;;;;;;;;;;;;21.18;43.53;99761.19;4920094;29;19923;-77
2023/04/24 13:38:59;;;;;;;;;;;;;;;21.25;44.02;99761.13;4918650;29;19915;-78
2023/04/24 13:41:51;;;;;;;;;;;;;;;21.36;42.36;99760.22;4922783;29;19923;-77
2023/04/24 13:44:43;;;;;;;;;;;;;;;21.41;40.70;99751.47;4918503;29;19914;-77
2023/04/24 13:47:35;;;;;;;;;;;;;;;21.32;43.17;99751.97;4918130;29;19915;-77
2023/04/24 13:50:28;;;;;;;;;;;;;;;21.24;44.59;99740.19;4911301;29;19914;-76
2023/04/24 13:53:20;;;;;;;;;;;;;;;21.16;44.92;99743.44;4918292;29;19915;-78
2023/04/24 13:56:12;;;;;;;;;;;;;;;21.10;46.03;99742.28;4917866;29;19915;-77
2023/04/24 13:59:04;;;;;;;;;;;;;;;21.22;46.29;99739.81;4920057;29;19932;-77
2023/04/24 14:01:56;;;;;;;;;;;;;;;21.29;45.20;99734.19;4918189;29;19919;-77
2023/04/24 14:04:48;;;;;;;;;;;;;;;21.38;43.56;99727.41;4917821;29;20390;-77
2023/04/24 14:07:37;;;;;;;;;;;;;;;21.33;44.15;99734.94;4917775;29;19915;-77
2023/04/24 14:10:29;;;;;;;;;;;;;;;21.23;44.68;99733.06;4910963;29;19915;-77
2023/04/24 14:13:21;;;;;;;;;;;;;;;21.18;45.38;99741.81;4917970;29;19915;-77
2023/04/24 14:16:13;;;;;;;;;;;;;;;21.14;45.26;99741.06;4933202;29;20379;-77
2023/04/24 14:19:06;;;;;;;;;;;;;;;21.13;45.12;99730.41;4927383;29;20374;-77
2023/04/24 14:21:55;;;;;;;;;;;;;;;21.12;45.03;99726.88;4920417;29;20001;-77
2023/04/24 14:24:42;;;;;;;;;;;;;;;21.10;44.21;99725.69;4916741;29;19914;-77
2023/04/24 14:27:34;;;;;;;;;;;;;;;21.06;44.91;99725.75;4911013;29;19919;-77
2023/04/24 14:30:26;;;;;;;;;;;;;;;21.02;44.37;99736.06;4921920;29;19915;-77
2023/04/24 14:33:18;;;;;;;;;;;;;;;21.04;45.11;99744.69;4917899;29;20382;-77
2023/04/24 14:36:10;;;;;;;;;;;;;;;21.05;44.86;99739.97;4921184;29;20326;-77
2023/04/24 14:39:02;;;;;;;;;;;;;;;21.09;45.19;99730.44;4924423;29;19914;-77
2023/04/24 14:41:54;;;;;;;;;;;;;;;21.06;45.54;99719.41;4917274;29;19919;-77
2023/04/24 14:44:46;;;;;;;;;;;;;;;21.02;45.47;99713.94;4917055;29;19914;-76
2023/04/24 14:47:35;;;;;;;;;;;;;;;20.99;45.38;99713.94;4918046;29;19915;-77
2023/04/24 14:50:27;;;;;;;;;;;;;;;20.96;46.04;99725.84;4924771;29;19915;-78
2023/04/24 14:53:19;;;;;;;;;;;;;;;20.93;46.63;99738.47;4917019;29;19915;-77
2023/04/24 14:56:11;;;;;;;;;;;;;;;20.89;47.75;99751.56;4919621;29;19915;-77
2023/04/24 14:59:03;;;;;;;;;;;;;;;20.89;47.41;99749.56;4924461;29;19915;-78
2023/04/24 15:01:57;;;;;;;;;;;;;;;20.86;47.25;99755.16;4921390;29;19919;-77
2023/04/24 15:04:49;;;;;;;;;;;;;;;20.80;47.49;99752.03;4913524;29;20299;-78
2023/04/24 15:07:41;;;;;;;;;;;;;;;20.81;47.75;99763.88;4898003;29;20291;-78
2023/04/24 15:10:33;;;;;;;;;;;;;;;20.83;47.84;99776.06;4925942;29;19915;-78